sensor_id;sensor_type;location;lat;lon;timestamp;temperature;humidity
49379;DHT22;35254;47.990;-1.608;2023-02-15T00:01:51;18.20;44.00
49379;DHT22;35254;47.990;-1.608;2023-02-15T00:04:19;18.20;44.00
49379;DHT22;35254;47.990;-1.608;2023-02-15T00:06:46;18.20;44.00
49379;DHT22;35254;47.990;-1.608;2023-02-15T00:09:12;18.20;44.00
49379;DHT22;35254;47.990;-1.608;2023-02-15T00:11:38;18.20;44.00
49379;DHT22;35254;47.990;-1.608;2023-02-15T00:14:21;18.20;43.90
49379;DHT22;35254;47.990;-1.608;2023-02-15T00:16:49;18.20;44.00
49379;DHT22;35254;47.990;-1.608;2023-02-15T00:19:18;18.20;43.90
49379;DHT22;35254;47.990;-1.608;2023-02-15T00:21:44;18.20;43.90
49379;DHT22;35254;47.990;-1.608;2023-02-15T00:24:12;18.20;43.90
49379;DHT22;35254;47.990;-1.608;2023-02-15T00:26:39;18.20;43.90
49379;DHT22;35254;47.990;-1.608;2023-02-15T00:29:05;18.20;43.80
49379;DHT22;35254;47.990;-1.608;2023-02-15T00:31:32;18.20;43.90
49379;DHT22;35254;47.990;-1.608;2023-02-15T00:34:11;18.20;43.90
49379;DHT22;35254;47.990;-1.608;2023-02-15T00:36:37;18.20;43.90
49379;DHT22;35254;47.990;-1.608;2023-02-15T00:39:03;18.20;43.90
49379;DHT22;35254;47.990;-1.608;2023-02-15T00:41:30;18.20;43.90
49379;DHT22;35254;47.990;-1.608;2023-02-15T00:43:56;18.20;43.80
49379;DHT22;35254;47.990;-1.608;2023-02-15T00:46:22;18.10;43.80
49379;DHT22;35254;47.990;-1.608;2023-02-15T00:48:47;18.10;43.80
49379;DHT22;35254;47.990;-1.608;2023-02-15T00:51:13;18.10;43.80
49379;DHT22;35254;47.990;-1.608;2023-02-15T00:53:39;18.10;43.80
49379;DHT22;35254;47.990;-1.608;2023-02-15T00:56:04;18.10;43.80
49379;DHT22;35254;47.990;-1.608;2023-02-15T00:58:30;18.10;43.80
49379;DHT22;35254;47.990;-1.608;2023-02-15T01:01:06;18.10;43.80
49379;DHT22;35254;47.990;-1.608;2023-02-15T01:03:32;18.10;43.90
49379;DHT22;35254;47.990;-1.608;2023-02-15T01:05:58;18.10;43.80
49379;DHT22;35254;47.990;-1.608;2023-02-15T01:08:24;18.10;43.70
49379;DHT22;35254;47.990;-1.608;2023-02-15T01:10:49;18.00;43.70
49379;DHT22;35254;47.990;-1.608;2023-02-15T01:13:16;18.00;43.80
49379;DHT22;35254;47.990;-1.608;2023-02-15T01:15:42;18.00;43.70
49379;DHT22;35254;47.990;-1.608;2023-02-15T01:18:09;18.00;43.70
49379;DHT22;35254;47.990;-1.608;2023-02-15T01:20:37;18.00;43.70
49379;DHT22;35254;47.990;-1.608;2023-02-15T01:23:05;18.00;43.80
49379;DHT22;35254;47.990;-1.608;2023-02-15T01:25:33;18.00;43.80
49379;DHT22;35254;47.990;-1.608;2023-02-15T01:28:00;18.00;43.80
49379;DHT22;35254;47.990;-1.608;2023-02-15T01:30:25;18.00;43.80
49379;DHT22;35254;47.990;-1.608;2023-02-15T01:32:51;18.00;43.80
49379;DHT22;35254;47.990;-1.608;2023-02-15T01:35:17;17.90;43.80
49379;DHT22;35254;47.990;-1.608;2023-02-15T01:37:42;17.90;43.80
49379;DHT22;35254;47.990;-1.608;2023-02-15T01:40:12;17.90;43.80
49379;DHT22;35254;47.990;-1.608;2023-02-15T01:42:38;17.90;43.80
49379;DHT22;35254;47.990;-1.608;2023-02-15T01:45:21;17.90;43.90
49379;DHT22;35254;47.990;-1.608;2023-02-15T01:47:58;17.90;43.80
49379;DHT22;35254;47.990;-1.608;2023-02-15T01:50:28;17.90;43.80
49379;DHT22;35254;47.990;-1.608;2023-02-15T01:53:17;17.90;43.70
49379;DHT22;35254;47.990;-1.608;2023-02-15T01:55:58;17.90;43.80
49379;DHT22;35254;47.990;-1.608;2023-02-15T01:58:26;17.80;43.70
49379;DHT22;35254;47.990;-1.608;2023-02-15T02:00:53;17.90;43.80
49379;DHT22;35254;47.990;-1.608;2023-02-15T02:03:49;17.80;43.80
49379;DHT22;35254;47.990;-1.608;2023-02-15T02:06:18;17.90;43.70
49379;DHT22;35254;47.990;-1.608;2023-02-15T02:08:44;17.90;43.60
49379;DHT22;35254;47.990;-1.608;2023-02-15T02:11:12;17.80;43.60
49379;DHT22;35254;47.990;-1.608;2023-02-15T02:13:43;17.80;43.70
49379;DHT22;35254;47.990;-1.608;2023-02-15T02:16:24;17.80;43.60
49379;DHT22;35254;47.990;-1.608;2023-02-15T02:33:46;17.70;43.80
49379;DHT22;35254;47.990;-1.608;2023-02-15T02:42:30;17.70;43.80
49379;DHT22;35254;47.990;-1.608;2023-02-15T02:47:51;17.70;43.80
49379;DHT22;35254;47.990;-1.608;2023-02-15T02:50:24;17.70;43.70
49379;DHT22;35254;47.990;-1.608;2023-02-15T02:52:52;17.70;43.60
49379;DHT22;35254;47.990;-1.608;2023-02-15T03:00:28;17.70;43.60
49379;DHT22;35254;47.990;-1.608;2023-02-15T03:03:09;17.70;43.50
49379;DHT22;35254;47.990;-1.608;2023-02-15T03:05:40;17.70;43.50
49379;DHT22;35254;47.990;-1.608;2023-02-15T03:08:07;17.70;43.50
49379;DHT22;35254;47.990;-1.608;2023-02-15T03:10:36;17.70;43.40
49379;DHT22;35254;47.990;-1.608;2023-02-15T03:13:03;17.70;43.50
49379;DHT22;35254;47.990;-1.608;2023-02-15T03:15:36;17.70;43.50
49379;DHT22;35254;47.990;-1.608;2023-02-15T03:18:25;17.70;43.50
49379;DHT22;35254;47.990;-1.608;2023-02-15T03:20:54;17.70;43.50
49379;DHT22;35254;47.990;-1.608;2023-02-15T03:23:23;17.70;43.40
49379;DHT22;35254;47.990;-1.608;2023-02-15T03:25:58;17.70;43.40
49379;DHT22;35254;47.990;-1.608;2023-02-15T03:28:30;17.70;43.50
49379;DHT22;35254;47.990;-1.608;2023-02-15T03:31:00;17.60;43.40
49379;DHT22;35254;47.990;-1.608;2023-02-15T03:33:27;17.70;43.50
49379;DHT22;35254;47.990;-1.608;2023-02-15T03:36:01;17.60;43.50
49379;DHT22;35254;47.990;-1.608;2023-02-15T03:38:44;17.60;43.50
49379;DHT22;35254;47.990;-1.608;2023-02-15T03:41:15;17.50;43.50
49379;DHT22;35254;47.990;-1.608;2023-02-15T03:43:48;17.60;43.40
49379;DHT22;35254;47.990;-1.608;2023-02-15T03:46:24;17.60;43.30
49379;DHT22;35254;47.990;-1.608;2023-02-15T03:48:56;17.60;43.30
49379;DHT22;35254;47.990;-1.608;2023-02-15T03:51:27;17.60;43.30
49379;DHT22;35254;47.990;-1.608;2023-02-15T03:54:08;17.60;43.30
49379;DHT22;35254;47.990;-1.608;2023-02-15T03:59:03;17.60;43.20
49379;DHT22;35254;47.990;-1.608;2023-02-15T04:01:59;17.60;43.20
49379;DHT22;35254;47.990;-1.608;2023-02-15T04:04:32;17.50;43.10
49379;DHT22;35254;47.990;-1.608;2023-02-15T04:06:58;17.50;43.10
49379;DHT22;35254;47.990;-1.608;2023-02-15T04:09:23;17.50;43.20
49379;DHT22;35254;47.990;-1.608;2023-02-15T04:12:08;17.50;43.20
49379;DHT22;35254;47.990;-1.608;2023-02-15T04:14:34;17.50;43.10
49379;DHT22;35254;47.990;-1.608;2023-02-15T04:17:18;17.40;43.10
49379;DHT22;35254;47.990;-1.608;2023-02-15T04:19:44;17.40;43.10
49379;DHT22;35254;47.990;-1.608;2023-02-15T04:22:28;17.40;43.10
49379;DHT22;35254;47.990;-1.608;2023-02-15T04:25:12;17.40;43.10
49379;DHT22;35254;47.990;-1.608;2023-02-15T04:27:59;17.50;43.20
49379;DHT22;35254;47.990;-1.608;2023-02-15T04:30:25;17.40;43.20
49379;DHT22;35254;47.990;-1.608;2023-02-15T04:32:51;17.40;43.10
49379;DHT22;35254;47.990;-1.608;2023-02-15T04:35:18;17.40;43.10
49379;DHT22;35254;47.990;-1.608;2023-02-15T04:37:44;17.50;43.10
49379;DHT22;35254;47.990;-1.608;2023-02-15T04:40:12;17.40;43.10
49379;DHT22;35254;47.990;-1.608;2023-02-15T04:42:38;17.40;43.10
49379;DHT22;35254;47.990;-1.608;2023-02-15T04:45:04;17.40;43.00
49379;DHT22;35254;47.990;-1.608;2023-02-15T04:47:30;17.40;43.00
49379;DHT22;35254;47.990;-1.608;2023-02-15T04:49:56;17.40;42.90
49379;DHT22;35254;47.990;-1.608;2023-02-15T04:52:21;17.40;42.90
49379;DHT22;35254;47.990;-1.608;2023-02-15T04:54:47;17.40;42.90
49379;DHT22;35254;47.990;-1.608;2023-02-15T04:57:13;17.40;42.80
49379;DHT22;35254;47.990;-1.608;2023-02-15T04:59:38;17.40;42.80
49379;DHT22;35254;47.990;-1.608;2023-02-15T05:02:04;17.40;42.90
49379;DHT22;35254;47.990;-1.608;2023-02-15T05:04:30;17.30;42.90
49379;DHT22;35254;47.990;-1.608;2023-02-15T05:06:55;17.40;42.90
49379;DHT22;35254;47.990;-1.608;2023-02-15T05:09:21;17.40;42.80
49379;DHT22;35254;47.990;-1.608;2023-02-15T05:11:47;17.40;42.90
49379;DHT22;35254;47.990;-1.608;2023-02-15T05:14:12;17.30;42.90
49379;DHT22;35254;47.990;-1.608;2023-02-15T05:16:38;17.40;42.80
49379;DHT22;35254;47.990;-1.608;2023-02-15T05:19:04;17.40;42.80
49379;DHT22;35254;47.990;-1.608;2023-02-15T05:21:30;17.30;42.90
49379;DHT22;35254;47.990;-1.608;2023-02-15T05:23:55;17.30;42.90
49379;DHT22;35254;47.990;-1.608;2023-02-15T05:26:23;17.30;42.90
49379;DHT22;35254;47.990;-1.608;2023-02-15T05:29:08;17.30;42.90
49379;DHT22;35254;47.990;-1.608;2023-02-15T05:31:34;17.30;42.90
49379;DHT22;35254;47.990;-1.608;2023-02-15T05:33:59;17.30;42.90
49379;DHT22;35254;47.990;-1.608;2023-02-15T05:36:25;17.20;42.90
49379;DHT22;35254;47.990;-1.608;2023-02-15T05:38:50;17.30;42.90
49379;DHT22;35254;47.990;-1.608;2023-02-15T05:41:16;17.30;42.80
49379;DHT22;35254;47.990;-1.608;2023-02-15T05:43:42;17.30;42.90
49379;DHT22;35254;47.990;-1.608;2023-02-15T05:46:08;17.20;42.90
49379;DHT22;35254;47.990;-1.608;2023-02-15T05:48:34;17.20;42.80
49379;DHT22;35254;47.990;-1.608;2023-02-15T05:51:05;17.20;42.80
49379;DHT22;35254;47.990;-1.608;2023-02-15T05:53:34;17.20;42.80
49379;DHT22;35254;47.990;-1.608;2023-02-15T05:56:00;17.20;42.80
49379;DHT22;35254;47.990;-1.608;2023-02-15T05:58:29;17.20;42.80
49379;DHT22;35254;47.990;-1.608;2023-02-15T06:00:55;17.20;42.80
49379;DHT22;35254;47.990;-1.608;2023-02-15T06:03:22;17.20;42.90
49379;DHT22;35254;47.990;-1.608;2023-02-15T06:05:48;17.20;42.90
49379;DHT22;35254;47.990;-1.608;2023-02-15T06:08:14;17.20;42.90
49379;DHT22;35254;47.990;-1.608;2023-02-15T06:10:39;17.20;42.80
49379;DHT22;35254;47.990;-1.608;2023-02-15T06:13:06;17.20;42.80
49379;DHT22;35254;47.990;-1.608;2023-02-15T06:15:32;17.20;42.80
49379;DHT22;35254;47.990;-1.608;2023-02-15T06:17:58;17.20;42.70
49379;DHT22;35254;47.990;-1.608;2023-02-15T06:20:23;17.20;42.70
49379;DHT22;35254;47.990;-1.608;2023-02-15T06:22:49;17.20;42.70
49379;DHT22;35254;47.990;-1.608;2023-02-15T06:25:15;17.20;42.70
49379;DHT22;35254;47.990;-1.608;2023-02-15T06:27:41;17.20;42.60
49379;DHT22;35254;47.990;-1.608;2023-02-15T06:30:09;17.20;42.60
49379;DHT22;35254;47.990;-1.608;2023-02-15T06:32:35;17.20;42.50
49379;DHT22;35254;47.990;-1.608;2023-02-15T06:35:01;17.20;42.50
49379;DHT22;35254;47.990;-1.608;2023-02-15T06:37:27;17.20;42.60
49379;DHT22;35254;47.990;-1.608;2023-02-15T06:39:53;17.20;42.50
49379;DHT22;35254;47.990;-1.608;2023-02-15T06:42:18;17.20;42.50
49379;DHT22;35254;47.990;-1.608;2023-02-15T06:44:44;17.20;42.40
49379;DHT22;35254;47.990;-1.608;2023-02-15T06:47:10;17.20;42.40
49379;DHT22;35254;47.990;-1.608;2023-02-15T06:49:36;17.20;42.40
49379;DHT22;35254;47.990;-1.608;2023-02-15T06:52:03;17.20;42.40
49379;DHT22;35254;47.990;-1.608;2023-02-15T06:54:29;17.10;42.40
49379;DHT22;35254;47.990;-1.608;2023-02-15T06:56:55;17.10;42.40
49379;DHT22;35254;47.990;-1.608;2023-02-15T06:59:21;17.10;42.40
49379;DHT22;35254;47.990;-1.608;2023-02-15T07:01:46;17.10;42.30
49379;DHT22;35254;47.990;-1.608;2023-02-15T07:04:12;17.10;42.40
49379;DHT22;35254;47.990;-1.608;2023-02-15T07:06:38;17.10;42.30
49379;DHT22;35254;47.990;-1.608;2023-02-15T07:09:04;17.10;42.40
49379;DHT22;35254;47.990;-1.608;2023-02-15T07:11:29;17.10;42.50
49379;DHT22;35254;47.990;-1.608;2023-02-15T07:14:14;17.10;42.40
49379;DHT22;35254;47.990;-1.608;2023-02-15T07:16:39;17.10;42.40
49379;DHT22;35254;47.990;-1.608;2023-02-15T07:19:05;17.10;42.30
49379;DHT22;35254;47.990;-1.608;2023-02-15T07:21:32;17.20;44.10
49379;DHT22;35254;47.990;-1.608;2023-02-15T07:23:58;17.20;43.90
49379;DHT22;35254;47.990;-1.608;2023-02-15T07:26:24;17.20;43.30
49379;DHT22;35254;47.990;-1.608;2023-02-15T07:28:50;17.20;43.10
49379;DHT22;35254;47.990;-1.608;2023-02-15T07:31:16;17.20;43.30
49379;DHT22;35254;47.990;-1.608;2023-02-15T07:33:41;17.10;43.40
49379;DHT22;35254;47.990;-1.608;2023-02-15T07:36:08;17.10;43.50
49379;DHT22;35254;47.990;-1.608;2023-02-15T07:38:37;17.20;43.60
49379;DHT22;35254;47.990;-1.608;2023-02-15T07:41:08;17.10;43.80
49379;DHT22;35254;47.990;-1.608;2023-02-15T07:43:36;17.10;43.60
49379;DHT22;35254;47.990;-1.608;2023-02-15T07:46:04;17.10;43.60
49379;DHT22;35254;47.990;-1.608;2023-02-15T07:48:30;17.10;43.40
49379;DHT22;35254;47.990;-1.608;2023-02-15T07:51:01;17.10;43.40
49379;DHT22;35254;47.990;-1.608;2023-02-15T07:53:27;17.10;43.30
49379;DHT22;35254;47.990;-1.608;2023-02-15T07:55:53;17.10;43.30
49379;DHT22;35254;47.990;-1.608;2023-02-15T07:58:19;17.00;43.40
49379;DHT22;35254;47.990;-1.608;2023-02-15T08:00:45;17.00;43.40
49379;DHT22;35254;47.990;-1.608;2023-02-15T08:03:24;17.00;43.30
49379;DHT22;35254;47.990;-1.608;2023-02-15T08:05:56;17.00;43.20
49379;DHT22;35254;47.990;-1.608;2023-02-15T08:08:22;17.10;43.20
49379;DHT22;35254;47.990;-1.608;2023-02-15T08:11:04;17.10;43.20
49379;DHT22;35254;47.990;-1.608;2023-02-15T08:13:51;17.10;43.30
49379;DHT22;35254;47.990;-1.608;2023-02-15T08:16:37;17.10;43.60
49379;DHT22;35254;47.990;-1.608;2023-02-15T08:19:19;17.10;43.80
49379;DHT22;35254;47.990;-1.608;2023-02-15T08:21:49;17.10;43.90
49379;DHT22;35254;47.990;-1.608;2023-02-15T08:24:16;17.10;43.90
49379;DHT22;35254;47.990;-1.608;2023-02-15T08:26:43;17.20;44.00
49379;DHT22;35254;47.990;-1.608;2023-02-15T08:29:13;17.20;43.90
49379;DHT22;35254;47.990;-1.608;2023-02-15T08:31:39;17.30;44.20
49379;DHT22;35254;47.990;-1.608;2023-02-15T08:34:07;17.30;44.00
49379;DHT22;35254;47.990;-1.608;2023-02-15T08:36:33;17.30;44.10
49379;DHT22;35254;47.990;-1.608;2023-02-15T08:39:01;17.40;44.30
49379;DHT22;35254;47.990;-1.608;2023-02-15T08:41:29;17.50;44.30
49379;DHT22;35254;47.990;-1.608;2023-02-15T08:43:57;17.50;44.30
49379;DHT22;35254;47.990;-1.608;2023-02-15T08:46:25;17.60;44.40
49379;DHT22;35254;47.990;-1.608;2023-02-15T08:48:52;17.60;44.70
49379;DHT22;35254;47.990;-1.608;2023-02-15T08:51:20;17.60;44.80
49379;DHT22;35254;47.990;-1.608;2023-02-15T08:53:49;17.70;44.60
49379;DHT22;35254;47.990;-1.608;2023-02-15T08:56:16;17.70;44.70
49379;DHT22;35254;47.990;-1.608;2023-02-15T08:58:42;17.70;44.60
49379;DHT22;35254;47.990;-1.608;2023-02-15T09:01:09;17.70;44.60
49379;DHT22;35254;47.990;-1.608;2023-02-15T09:03:35;17.70;44.30
49379;DHT22;35254;47.990;-1.608;2023-02-15T09:06:01;17.70;44.70
49379;DHT22;35254;47.990;-1.608;2023-02-15T09:08:28;17.70;44.70
49379;DHT22;35254;47.990;-1.608;2023-02-15T09:10:54;17.70;45.00
49379;DHT22;35254;47.990;-1.608;2023-02-15T09:13:20;17.80;44.80
49379;DHT22;35254;47.990;-1.608;2023-02-15T09:15:46;17.70;45.50
49379;DHT22;35254;47.990;-1.608;2023-02-15T09:18:12;17.80;45.50
49379;DHT22;35254;47.990;-1.608;2023-02-15T09:20:43;17.80;45.70
49379;DHT22;35254;47.990;-1.608;2023-02-15T09:23:08;17.80;45.80
49379;DHT22;35254;47.990;-1.608;2023-02-15T09:25:34;17.80;45.80
49379;DHT22;35254;47.990;-1.608;2023-02-15T09:28:00;17.80;45.80
49379;DHT22;35254;47.990;-1.608;2023-02-15T09:30:25;17.90;45.90
49379;DHT22;35254;47.990;-1.608;2023-02-15T09:32:51;17.90;45.30
49379;DHT22;35254;47.990;-1.608;2023-02-15T09:35:17;17.90;45.30
49379;DHT22;35254;47.990;-1.608;2023-02-15T09:37:42;17.90;45.70
49379;DHT22;35254;47.990;-1.608;2023-02-15T09:40:08;18.00;45.80
49379;DHT22;35254;47.990;-1.608;2023-02-15T09:42:40;18.00;46.20
49379;DHT22;35254;47.990;-1.608;2023-02-15T09:57:02;17.90;46.80
49379;DHT22;35254;47.990;-1.608;2023-02-15T10:07:42;17.90;46.20
49379;DHT22;35254;47.990;-1.608;2023-02-15T10:12:57;17.90;46.00
49379;DHT22;35254;47.990;-1.608;2023-02-15T10:18:24;17.90;45.60
49379;DHT22;35254;47.990;-1.608;2023-02-15T10:21:12;17.90;46.10
49379;DHT22;35254;47.990;-1.608;2023-02-15T10:26:37;17.90;45.40
49379;DHT22;35254;47.990;-1.608;2023-02-15T10:31:49;17.90;45.30
49379;DHT22;35254;47.990;-1.608;2023-02-15T10:34:19;17.90;45.10
49379;DHT22;35254;47.990;-1.608;2023-02-15T10:39:34;18.00;44.90
49379;DHT22;35254;47.990;-1.608;2023-02-15T10:45:26;18.00;45.10
49379;DHT22;35254;47.990;-1.608;2023-02-15T10:56:03;18.00;45.30
49379;DHT22;35254;47.990;-1.608;2023-02-15T11:06:29;18.10;45.50
49379;DHT22;35254;47.990;-1.608;2023-02-15T11:09:05;18.10;45.60
49379;DHT22;35254;47.990;-1.608;2023-02-15T11:11:37;18.10;45.40
49379;DHT22;35254;47.990;-1.608;2023-02-15T11:16:50;18.20;45.30
49379;DHT22;35254;47.990;-1.608;2023-02-15T11:19:37;18.20;45.50
49379;DHT22;35254;47.990;-1.608;2023-02-15T11:22:06;18.20;45.30
49379;DHT22;35254;47.990;-1.608;2023-02-15T11:24:36;18.20;45.20
49379;DHT22;35254;47.990;-1.608;2023-02-15T11:27:26;18.30;45.40
49379;DHT22;35254;47.990;-1.608;2023-02-15T11:30:01;18.30;45.10
49379;DHT22;35254;47.990;-1.608;2023-02-15T11:32:39;18.40;45.10
49379;DHT22;35254;47.990;-1.608;2023-02-15T11:42:53;18.50;45.20
49379;DHT22;35254;47.990;-1.608;2023-02-15T11:45:29;18.40;45.30
49379;DHT22;35254;47.990;-1.608;2023-02-15T11:47:56;18.50;45.30
49379;DHT22;35254;47.990;-1.608;2023-02-15T11:50:32;18.50;45.50
49379;DHT22;35254;47.990;-1.608;2023-02-15T11:53:01;18.50;45.40
49379;DHT22;35254;47.990;-1.608;2023-02-15T11:55:28;18.50;45.60
49379;DHT22;35254;47.990;-1.608;2023-02-15T11:58:29;18.60;45.40
49379;DHT22;35254;47.990;-1.608;2023-02-15T12:01:02;18.60;45.30
49379;DHT22;35254;47.990;-1.608;2023-02-15T12:03:48;18.60;45.30
49379;DHT22;35254;47.990;-1.608;2023-02-15T12:06:27;18.60;45.50
49379;DHT22;35254;47.990;-1.608;2023-02-15T12:11:44;18.60;45.40
49379;DHT22;35254;47.990;-1.608;2023-02-15T12:14:12;18.60;45.30
49379;DHT22;35254;47.990;-1.608;2023-02-15T12:16:49;18.70;45.50
49379;DHT22;35254;47.990;-1.608;2023-02-15T12:19:31;18.60;45.60
49379;DHT22;35254;47.990;-1.608;2023-02-15T12:21:59;18.70;45.50
49379;DHT22;35254;47.990;-1.608;2023-02-15T12:24:36;18.70;45.60
49379;DHT22;35254;47.990;-1.608;2023-02-15T12:29:35;18.70;45.50
49379;DHT22;35254;47.990;-1.608;2023-02-15T12:32:06;18.70;45.50
49379;DHT22;35254;47.990;-1.608;2023-02-15T12:34:38;18.70;45.60
49379;DHT22;35254;47.990;-1.608;2023-02-15T12:37:21;18.80;45.50
49379;DHT22;35254;47.990;-1.608;2023-02-15T12:39:59;18.70;45.40
49379;DHT22;35254;47.990;-1.608;2023-02-15T12:42:26;18.80;45.50
49379;DHT22;35254;47.990;-1.608;2023-02-15T12:47:22;18.80;45.60
49379;DHT22;35254;47.990;-1.608;2023-02-15T12:52:46;18.90;45.60
49379;DHT22;35254;47.990;-1.608;2023-02-15T12:55:25;18.80;45.40
49379;DHT22;35254;47.990;-1.608;2023-02-15T13:00:39;18.90;45.50
49379;DHT22;35254;47.990;-1.608;2023-02-15T13:03:14;18.90;45.50
49379;DHT22;35254;47.990;-1.608;2023-02-15T13:05:43;18.90;45.40
49379;DHT22;35254;47.990;-1.608;2023-02-15T13:08:19;18.90;45.50
49379;DHT22;35254;47.990;-1.608;2023-02-15T13:11:00;18.90;45.40
49379;DHT22;35254;47.990;-1.608;2023-02-15T13:13:29;19.00;45.50
49379;DHT22;35254;47.990;-1.608;2023-02-15T13:16:06;19.00;45.50
49379;DHT22;35254;47.990;-1.608;2023-02-15T13:18:37;19.00;45.40
49379;DHT22;35254;47.990;-1.608;2023-02-15T13:21:31;19.00;45.50
49379;DHT22;35254;47.990;-1.608;2023-02-15T13:24:04;19.00;45.50
49379;DHT22;35254;47.990;-1.608;2023-02-15T13:26:31;19.00;45.40
49379;DHT22;35254;47.990;-1.608;2023-02-15T13:29:10;19.00;45.50
49379;DHT22;35254;47.990;-1.608;2023-02-15T13:31:38;19.00;45.60
49379;DHT22;35254;47.990;-1.608;2023-02-15T13:34:37;19.10;45.50
49379;DHT22;35254;47.990;-1.608;2023-02-15T13:37:15;19.10;45.40
49379;DHT22;35254;47.990;-1.608;2023-02-15T13:40:01;19.10;45.60
49379;DHT22;35254;47.990;-1.608;2023-02-15T13:42:41;19.10;45.50
49379;DHT22;35254;47.990;-1.608;2023-02-15T13:51:57;19.10;45.80
49379;DHT22;35254;47.990;-1.608;2023-02-15T14:06:29;18.90;46.60
49379;DHT22;35254;47.990;-1.608;2023-02-15T14:11:34;18.90;46.50
49379;DHT22;35254;47.990;-1.608;2023-02-15T14:14:25;18.90;46.50
49379;DHT22;35254;47.990;-1.608;2023-02-15T14:22:37;19.00;46.40
49379;DHT22;35254;47.990;-1.608;2023-02-15T14:30:32;19.10;46.30
49379;DHT22;35254;47.990;-1.608;2023-02-15T14:35:59;19.10;46.20
49379;DHT22;35254;47.990;-1.608;2023-02-15T14:38:46;19.10;46.20
49379;DHT22;35254;47.990;-1.608;2023-02-15T14:41:29;19.10;46.30
49379;DHT22;35254;47.990;-1.608;2023-02-15T14:44:20;19.10;46.20
49379;DHT22;35254;47.990;-1.608;2023-02-15T14:47:06;19.10;46.20
49379;DHT22;35254;47.990;-1.608;2023-02-15T14:49:37;19.10;46.30
49379;DHT22;35254;47.990;-1.608;2023-02-15T14:52:05;19.10;46.30
49379;DHT22;35254;47.990;-1.608;2023-02-15T14:59:54;19.10;46.30
49379;DHT22;35254;47.990;-1.608;2023-02-15T15:05:24;19.20;46.40
49379;DHT22;35254;47.990;-1.608;2023-02-15T15:07:57;19.10;46.20
49379;DHT22;35254;47.990;-1.608;2023-02-15T15:10:44;19.10;46.20
49379;DHT22;35254;47.990;-1.608;2023-02-15T15:13:34;19.20;46.10
49379;DHT22;35254;47.990;-1.608;2023-02-15T15:18:55;19.20;46.00
49379;DHT22;35254;47.990;-1.608;2023-02-15T15:45:56;19.30;45.90
49379;DHT22;35254;47.990;-1.608;2023-02-15T15:48:38;19.30;45.90
49379;DHT22;35254;47.990;-1.608;2023-02-15T15:51:14;19.30;46.00
49379;DHT22;35254;47.990;-1.608;2023-02-15T15:53:45;19.30;46.00
49379;DHT22;35254;47.990;-1.608;2023-02-15T15:56:24;19.30;46.00
49379;DHT22;35254;47.990;-1.608;2023-02-15T15:58:55;19.30;46.10
49379;DHT22;35254;47.990;-1.608;2023-02-15T16:01:30;19.30;46.10
49379;DHT22;35254;47.990;-1.608;2023-02-15T16:03:58;19.30;46.10
49379;DHT22;35254;47.990;-1.608;2023-02-15T16:08:53;19.30;46.20
49379;DHT22;35254;47.990;-1.608;2023-02-15T16:11:25;19.30;46.20
49379;DHT22;35254;47.990;-1.608;2023-02-15T16:13:52;19.30;46.20
49379;DHT22;35254;47.990;-1.608;2023-02-15T16:16:26;19.30;46.10
49379;DHT22;35254;47.990;-1.608;2023-02-15T16:18:54;19.40;46.10
49379;DHT22;35254;47.990;-1.608;2023-02-15T16:21:23;19.40;46.10
49379;DHT22;35254;47.990;-1.608;2023-02-15T16:24:15;19.30;46.00
49379;DHT22;35254;47.990;-1.608;2023-02-15T16:29:49;19.30;46.00
49379;DHT22;35254;47.990;-1.608;2023-02-15T16:32:23;19.30;46.00
49379;DHT22;35254;47.990;-1.608;2023-02-15T16:34:55;19.30;46.00
49379;DHT22;35254;47.990;-1.608;2023-02-15T16:37:26;19.30;45.90
49379;DHT22;35254;47.990;-1.608;2023-02-15T16:39:54;19.30;46.00
49379;DHT22;35254;47.990;-1.608;2023-02-15T16:42:20;19.30;46.00
49379;DHT22;35254;47.990;-1.608;2023-02-15T16:44:51;19.30;46.10
49379;DHT22;35254;47.990;-1.608;2023-02-15T16:47:21;19.30;46.10
49379;DHT22;35254;47.990;-1.608;2023-02-15T16:49:51;19.30;46.10
49379;DHT22;35254;47.990;-1.608;2023-02-15T16:52:22;19.30;46.00
49379;DHT22;35254;47.990;-1.608;2023-02-15T16:55:02;19.30;46.10
49379;DHT22;35254;47.990;-1.608;2023-02-15T16:57:36;19.30;46.00
49379;DHT22;35254;47.990;-1.608;2023-02-15T17:00:14;19.30;46.00
49379;DHT22;35254;47.990;-1.608;2023-02-15T17:02:59;19.30;46.00
49379;DHT22;35254;47.990;-1.608;2023-02-15T17:05:32;19.30;46.10
49379;DHT22;35254;47.990;-1.608;2023-02-15T17:10:38;19.30;46.00
49379;DHT22;35254;47.990;-1.608;2023-02-15T17:13:11;19.30;46.00
49379;DHT22;35254;47.990;-1.608;2023-02-15T17:18:08;19.30;46.20
49379;DHT22;35254;47.990;-1.608;2023-02-15T17:20:38;19.20;46.20
49379;DHT22;35254;47.990;-1.608;2023-02-15T17:23:07;19.30;46.20
49379;DHT22;35254;47.990;-1.608;2023-02-15T17:25:43;19.20;46.30
49379;DHT22;35254;47.990;-1.608;2023-02-15T17:28:23;19.20;46.20
49379;DHT22;35254;47.990;-1.608;2023-02-15T17:30:51;19.20;46.30
49379;DHT22;35254;47.990;-1.608;2023-02-15T17:36:03;19.20;46.30
49379;DHT22;35254;47.990;-1.608;2023-02-15T17:38:30;19.20;47.70
49379;DHT22;35254;47.990;-1.608;2023-02-15T17:40:56;19.10;49.00
49379;DHT22;35254;47.990;-1.608;2023-02-15T17:43:25;19.00;49.20
49379;DHT22;35254;47.990;-1.608;2023-02-15T17:45:52;18.90;48.30
49379;DHT22;35254;47.990;-1.608;2023-02-15T17:48:22;19.00;48.00
49379;DHT22;35254;47.990;-1.608;2023-02-15T17:50:49;19.10;47.30
49379;DHT22;35254;47.990;-1.608;2023-02-15T17:53:16;19.10;50.10
49379;DHT22;35254;47.990;-1.608;2023-02-15T17:55:43;19.10;50.10
49379;DHT22;35254;47.990;-1.608;2023-02-15T17:58:19;19.10;49.90
49379;DHT22;35254;47.990;-1.608;2023-02-15T18:00:56;19.00;48.10
49379;DHT22;35254;47.990;-1.608;2023-02-15T18:03:47;19.10;47.70
49379;DHT22;35254;47.990;-1.608;2023-02-15T18:06:33;19.10;47.60
49379;DHT22;35254;47.990;-1.608;2023-02-15T18:09:20;19.10;47.70
49379;DHT22;35254;47.990;-1.608;2023-02-15T18:12:28;19.10;47.60
49379;DHT22;35254;47.990;-1.608;2023-02-15T18:14:56;19.10;47.40
49379;DHT22;35254;47.990;-1.608;2023-02-15T18:17:33;19.10;47.50
49379;DHT22;35254;47.990;-1.608;2023-02-15T18:20:00;19.10;47.20
49379;DHT22;35254;47.990;-1.608;2023-02-15T18:22:29;19.10;47.40
49379;DHT22;35254;47.990;-1.608;2023-02-15T18:24:55;19.10;47.30
49379;DHT22;35254;47.990;-1.608;2023-02-15T18:27:21;19.10;47.30
49379;DHT22;35254;47.990;-1.608;2023-02-15T18:29:46;19.20;47.30
49379;DHT22;35254;47.990;-1.608;2023-02-15T18:32:20;19.10;48.30
49379;DHT22;35254;47.990;-1.608;2023-02-15T18:34:47;19.10;48.10
49379;DHT22;35254;47.990;-1.608;2023-02-15T18:37:18;19.10;47.80
49379;DHT22;35254;47.990;-1.608;2023-02-15T18:42:24;19.10;47.50
49379;DHT22;35254;47.990;-1.608;2023-02-15T18:44:55;19.10;47.40
49379;DHT22;35254;47.990;-1.608;2023-02-15T18:47:22;19.10;47.40
49379;DHT22;35254;47.990;-1.608;2023-02-15T18:49:48;19.10;47.30
49379;DHT22;35254;47.990;-1.608;2023-02-15T18:52:21;19.10;47.30
49379;DHT22;35254;47.990;-1.608;2023-02-15T18:54:51;19.10;47.20